sensor_id;sensor_type;location;lat;lon;timestamp;P1;durP1;ratioP1;P2;durP2;ratioP2
11230;SDS011;5672;51.060;3.734;2023-07-13T00:02:22;7.10;;;2.73;;
11230;SDS011;5672;51.060;3.734;2023-07-13T00:04:49;6.77;;;2.27;;
11230;SDS011;5672;51.060;3.734;2023-07-13T00:07:15;6.20;;;2.57;;
11230;SDS011;5672;51.060;3.734;2023-07-13T00:09:44;4.33;;;2.50;;
11230;SDS011;5672;51.060;3.734;2023-07-13T00:15:12;8.17;;;3.07;;
11230;SDS011;5672;51.060;3.734;2023-07-13T00:17:38;8.30;;;2.60;;
11230;SDS011;5672;51.060;3.734;2023-07-13T00:20:04;8.47;;;3.27;;
11230;SDS011;5672;51.060;3.734;2023-07-13T00:22:30;11.03;;;3.30;;
11230;SDS011;5672;51.060;3.734;2023-07-13T00:24:56;7.83;;;3.33;;
11230;SDS011;5672;51.060;3.734;2023-07-13T00:27:23;8.73;;;3.20;;
11230;SDS011;5672;51.060;3.734;2023-07-13T00:29:51;11.00;;;3.17;;
11230;SDS011;5672;51.060;3.734;2023-07-13T00:32:17;5.73;;;3.00;;
11230;SDS011;5672;51.060;3.734;2023-07-13T00:34:43;6.80;;;2.93;;
11230;SDS011;5672;51.060;3.734;2023-07-13T00:37:09;12.77;;;3.80;;
11230;SDS011;5672;51.060;3.734;2023-07-13T00:39:36;8.13;;;3.20;;
11230;SDS011;5672;51.060;3.734;2023-07-13T00:42:02;9.90;;;3.40;;
11230;SDS011;5672;51.060;3.734;2023-07-13T00:44:28;8.70;;;3.33;;
11230;SDS011;5672;51.060;3.734;2023-07-13T00:46:55;6.57;;;2.80;;
11230;SDS011;5672;51.060;3.734;2023-07-13T00:49:23;11.90;;;3.73;;
11230;SDS011;5672;51.060;3.734;2023-07-13T00:51:50;7.13;;;3.10;;
11230;SDS011;5672;51.060;3.734;2023-07-13T00:54:19;7.20;;;3.10;;
11230;SDS011;5672;51.060;3.734;2023-07-13T00:56:47;11.17;;;3.33;;
11230;SDS011;5672;51.060;3.734;2023-07-13T00:59:14;8.93;;;3.10;;
11230;SDS011;5672;51.060;3.734;2023-07-13T01:01:41;5.97;;;3.07;;
11230;SDS011;5672;51.060;3.734;2023-07-13T01:04:07;7.57;;;3.27;;
11230;SDS011;5672;51.060;3.734;2023-07-13T01:06:36;7.70;;;3.40;;
11230;SDS011;5672;51.060;3.734;2023-07-13T01:09:04;12.60;;;3.37;;
11230;SDS011;5672;51.060;3.734;2023-07-13T01:11:30;10.20;;;3.20;;
11230;SDS011;5672;51.060;3.734;2023-07-13T01:13:56;10.20;;;3.47;;
11230;SDS011;5672;51.060;3.734;2023-07-13T01:16:27;11.33;;;3.03;;
11230;SDS011;5672;51.060;3.734;2023-07-13T01:18:54;9.63;;;3.30;;
11230;SDS011;5672;51.060;3.734;2023-07-13T01:21:23;10.90;;;3.13;;
11230;SDS011;5672;51.060;3.734;2023-07-13T01:23:49;10.87;;;3.40;;
11230;SDS011;5672;51.060;3.734;2023-07-13T01:26:16;10.03;;;3.50;;
11230;SDS011;5672;51.060;3.734;2023-07-13T01:28:42;9.43;;;3.20;;
11230;SDS011;5672;51.060;3.734;2023-07-13T01:31:08;10.47;;;3.33;;
11230;SDS011;5672;51.060;3.734;2023-07-13T01:33:35;9.90;;;3.30;;
11230;SDS011;5672;51.060;3.734;2023-07-13T01:36:02;14.03;;;3.20;;
11230;SDS011;5672;51.060;3.734;2023-07-13T01:38:28;9.27;;;3.23;;
11230;SDS011;5672;51.060;3.734;2023-07-13T01:40:54;9.83;;;3.63;;
11230;SDS011;5672;51.060;3.734;2023-07-13T01:43:20;10.97;;;3.20;;
11230;SDS011;5672;51.060;3.734;2023-07-13T01:45:46;7.30;;;3.03;;
11230;SDS011;5672;51.060;3.734;2023-07-13T01:48:12;9.20;;;3.90;;
11230;SDS011;5672;51.060;3.734;2023-07-13T01:50:39;11.93;;;3.53;;
11230;SDS011;5672;51.060;3.734;2023-07-13T01:53:05;13.90;;;3.60;;
11230;SDS011;5672;51.060;3.734;2023-07-13T01:55:31;11.63;;;3.07;;
11230;SDS011;5672;51.060;3.734;2023-07-13T01:57:58;10.47;;;3.30;;
11230;SDS011;5672;51.060;3.734;2023-07-13T02:00:24;10.37;;;3.60;;
11230;SDS011;5672;51.060;3.734;2023-07-13T02:02:50;13.17;;;3.93;;
11230;SDS011;5672;51.060;3.734;2023-07-13T02:05:16;9.43;;;3.40;;
11230;SDS011;5672;51.060;3.734;2023-07-13T02:07:42;9.23;;;3.40;;
11230;SDS011;5672;51.060;3.734;2023-07-13T02:10:09;10.30;;;3.50;;
11230;SDS011;5672;51.060;3.734;2023-07-13T02:12:35;12.03;;;3.60;;
11230;SDS011;5672;51.060;3.734;2023-07-13T02:15:01;10.37;;;3.40;;
11230;SDS011;5672;51.060;3.734;2023-07-13T02:17:27;8.00;;;3.03;;
11230;SDS011;5672;51.060;3.734;2023-07-13T02:19:53;9.03;;;3.17;;
11230;SDS011;5672;51.060;3.734;2023-07-13T02:22:19;10.67;;;3.40;;
11230;SDS011;5672;51.060;3.734;2023-07-13T02:24:46;7.67;;;3.07;;
11230;SDS011;5672;51.060;3.734;2023-07-13T02:27:12;13.30;;;3.40;;
11230;SDS011;5672;51.060;3.734;2023-07-13T02:29:38;13.40;;;4.10;;
11230;SDS011;5672;51.060;3.734;2023-07-13T02:32:04;10.67;;;3.87;;
11230;SDS011;5672;51.060;3.734;2023-07-13T02:34:30;8.80;;;3.40;;
11230;SDS011;5672;51.060;3.734;2023-07-13T02:36:56;9.77;;;3.60;;
11230;SDS011;5672;51.060;3.734;2023-07-13T02:39:22;11.07;;;3.30;;
11230;SDS011;5672;51.060;3.734;2023-07-13T02:41:48;13.13;;;3.67;;
11230;SDS011;5672;51.060;3.734;2023-07-13T02:44:15;11.10;;;3.80;;
11230;SDS011;5672;51.060;3.734;2023-07-13T02:46:41;12.10;;;3.53;;
11230;SDS011;5672;51.060;3.734;2023-07-13T02:49:07;8.97;;;3.50;;
11230;SDS011;5672;51.060;3.734;2023-07-13T02:51:33;8.37;;;3.30;;
11230;SDS011;5672;51.060;3.734;2023-07-13T02:54:00;11.67;;;3.60;;
11230;SDS011;5672;51.060;3.734;2023-07-13T02:56:28;13.67;;;3.80;;
11230;SDS011;5672;51.060;3.734;2023-07-13T02:58:54;14.83;;;3.83;;
11230;SDS011;5672;51.060;3.734;2023-07-13T03:01:20;16.80;;;4.13;;
11230;SDS011;5672;51.060;3.734;2023-07-13T03:03:47;11.57;;;3.27;;
11230;SDS011;5672;51.060;3.734;2023-07-13T03:06:13;11.60;;;3.83;;
11230;SDS011;5672;51.060;3.734;2023-07-13T03:08:40;15.60;;;3.30;;
11230;SDS011;5672;51.060;3.734;2023-07-13T03:11:07;8.17;;;3.13;;
11230;SDS011;5672;51.060;3.734;2023-07-13T03:13:34;8.50;;;3.10;;
11230;SDS011;5672;51.060;3.734;2023-07-13T03:16:00;9.63;;;3.70;;
11230;SDS011;5672;51.060;3.734;2023-07-13T03:18:27;14.77;;;3.67;;
11230;SDS011;5672;51.060;3.734;2023-07-13T03:20:53;10.43;;;3.90;;
11230;SDS011;5672;51.060;3.734;2023-07-13T03:23:20;15.33;;;4.17;;
11230;SDS011;5672;51.060;3.734;2023-07-13T03:25:46;11.50;;;3.43;;
11230;SDS011;5672;51.060;3.734;2023-07-13T03:28:13;9.70;;;4.00;;
11230;SDS011;5672;51.060;3.734;2023-07-13T03:30:39;11.47;;;3.87;;
11230;SDS011;5672;51.060;3.734;2023-07-13T03:33:05;16.87;;;4.23;;
11230;SDS011;5672;51.060;3.734;2023-07-13T03:35:32;13.57;;;3.77;;
11230;SDS011;5672;51.060;3.734;2023-07-13T03:37:58;17.87;;;4.10;;
11230;SDS011;5672;51.060;3.734;2023-07-13T03:40:25;9.93;;;3.73;;
11230;SDS011;5672;51.060;3.734;2023-07-13T03:42:51;13.30;;;4.13;;
11230;SDS011;5672;51.060;3.734;2023-07-13T03:45:17;16.70;;;4.43;;
11230;SDS011;5672;51.060;3.734;2023-07-13T03:47:43;13.10;;;3.57;;
11230;SDS011;5672;51.060;3.734;2023-07-13T03:50:10;14.03;;;3.77;;
11230;SDS011;5672;51.060;3.734;2023-07-13T03:52:36;11.20;;;3.83;;
11230;SDS011;5672;51.060;3.734;2023-07-13T03:55:02;8.13;;;3.40;;
11230;SDS011;5672;51.060;3.734;2023-07-13T03:57:28;12.93;;;3.77;;
11230;SDS011;5672;51.060;3.734;2023-07-13T03:59:54;11.53;;;3.90;;
11230;SDS011;5672;51.060;3.734;2023-07-13T04:02:20;14.10;;;3.63;;
11230;SDS011;5672;51.060;3.734;2023-07-13T04:04:46;9.37;;;3.83;;
11230;SDS011;5672;51.060;3.734;2023-07-13T04:07:13;10.30;;;3.90;;
11230;SDS011;5672;51.060;3.734;2023-07-13T04:09:39;13.00;;;3.60;;
11230;SDS011;5672;51.060;3.734;2023-07-13T04:12:05;10.37;;;3.63;;
11230;SDS011;5672;51.060;3.734;2023-07-13T04:14:31;10.37;;;4.10;;
11230;SDS011;5672;51.060;3.734;2023-07-13T04:16:58;13.23;;;4.33;;
11230;SDS011;5672;51.060;3.734;2023-07-13T04:19:23;11.50;;;3.87;;
11230;SDS011;5672;51.060;3.734;2023-07-13T04:21:49;8.30;;;3.30;;
11230;SDS011;5672;51.060;3.734;2023-07-13T04:24:16;13.37;;;3.90;;
11230;SDS011;5672;51.060;3.734;2023-07-13T04:26:41;13.80;;;3.53;;
11230;SDS011;5672;51.060;3.734;2023-07-13T04:29:08;12.77;;;4.00;;
11230;SDS011;5672;51.060;3.734;2023-07-13T04:31:34;12.00;;;3.63;;
11230;SDS011;5672;51.060;3.734;2023-07-13T04:34:00;13.97;;;3.50;;
11230;SDS011;5672;51.060;3.734;2023-07-13T04:36:26;14.30;;;3.60;;
11230;SDS011;5672;51.060;3.734;2023-07-13T04:38:52;16.27;;;4.33;;
11230;SDS011;5672;51.060;3.734;2023-07-13T04:41:21;10.57;;;3.53;;
11230;SDS011;5672;51.060;3.734;2023-07-13T04:43:47;9.90;;;3.43;;
11230;SDS011;5672;51.060;3.734;2023-07-13T04:46:14;12.17;;;3.50;;
11230;SDS011;5672;51.060;3.734;2023-07-13T04:48:42;9.77;;;3.60;;
11230;SDS011;5672;51.060;3.734;2023-07-13T04:51:08;10.07;;;3.10;;
11230;SDS011;5672;51.060;3.734;2023-07-13T04:53:34;12.70;;;3.23;;
11230;SDS011;5672;51.060;3.734;2023-07-13T04:56:01;11.93;;;3.63;;
11230;SDS011;5672;51.060;3.734;2023-07-13T04:58:27;10.13;;;3.43;;
11230;SDS011;5672;51.060;3.734;2023-07-13T05:00:53;10.33;;;3.40;;
11230;SDS011;5672;51.060;3.734;2023-07-13T05:03:19;11.67;;;3.80;;
11230;SDS011;5672;51.060;3.734;2023-07-13T05:05:54;14.30;;;3.93;;
11230;SDS011;5672;51.060;3.734;2023-07-13T05:08:20;7.60;;;3.40;;
11230;SDS011;5672;51.060;3.734;2023-07-13T05:10:46;15.43;;;4.03;;
11230;SDS011;5672;51.060;3.734;2023-07-13T05:13:12;12.93;;;3.53;;
11230;SDS011;5672;51.060;3.734;2023-07-13T05:15:38;10.33;;;3.67;;
11230;SDS011;5672;51.060;3.734;2023-07-13T05:18:04;13.83;;;4.00;;
11230;SDS011;5672;51.060;3.734;2023-07-13T05:20:30;10.53;;;3.40;;
11230;SDS011;5672;51.060;3.734;2023-07-13T05:22:56;11.60;;;3.97;;
11230;SDS011;5672;51.060;3.734;2023-07-13T05:25:22;13.67;;;3.63;;
11230;SDS011;5672;51.060;3.734;2023-07-13T05:27:48;15.40;;;4.00;;
11230;SDS011;5672;51.060;3.734;2023-07-13T05:30:15;18.23;;;3.67;;
11230;SDS011;5672;51.060;3.734;2023-07-13T05:32:41;14.27;;;4.13;;
11230;SDS011;5672;51.060;3.734;2023-07-13T05:35:07;9.77;;;3.30;;
11230;SDS011;5672;51.060;3.734;2023-07-13T05:37:33;12.13;;;4.10;;
11230;SDS011;5672;51.060;3.734;2023-07-13T05:39:59;10.50;;;3.47;;
11230;SDS011;5672;51.060;3.734;2023-07-13T05:42:25;6.37;;;3.30;;
11230;SDS011;5672;51.060;3.734;2023-07-13T05:44:52;14.03;;;4.10;;
11230;SDS011;5672;51.060;3.734;2023-07-13T05:47:18;15.03;;;4.23;;
11230;SDS011;5672;51.060;3.734;2023-07-13T05:49:44;12.03;;;3.67;;
11230;SDS011;5672;51.060;3.734;2023-07-13T05:52:10;15.27;;;4.00;;
11230;SDS011;5672;51.060;3.734;2023-07-13T05:54:36;13.77;;;3.90;;
11230;SDS011;5672;51.060;3.734;2023-07-13T05:57:02;13.87;;;4.03;;
11230;SDS011;5672;51.060;3.734;2023-07-13T05:59:28;9.47;;;3.83;;
11230;SDS011;5672;51.060;3.734;2023-07-13T06:01:54;10.80;;;3.67;;
11230;SDS011;5672;51.060;3.734;2023-07-13T06:04:20;11.67;;;3.83;;
11230;SDS011;5672;51.060;3.734;2023-07-13T06:06:46;14.10;;;3.63;;
11230;SDS011;5672;51.060;3.734;2023-07-13T06:09:12;15.03;;;4.13;;
11230;SDS011;5672;51.060;3.734;2023-07-13T06:11:38;12.30;;;3.90;;
11230;SDS011;5672;51.060;3.734;2023-07-13T06:14:04;12.93;;;4.00;;
11230;SDS011;5672;51.060;3.734;2023-07-13T06:16:30;7.00;;;3.30;;
11230;SDS011;5672;51.060;3.734;2023-07-13T06:18:56;11.40;;;4.00;;
11230;SDS011;5672;51.060;3.734;2023-07-13T06:21:22;8.33;;;3.57;;
11230;SDS011;5672;51.060;3.734;2023-07-13T06:23:49;10.73;;;3.70;;
11230;SDS011;5672;51.060;3.734;2023-07-13T06:26:16;15.73;;;4.17;;
11230;SDS011;5672;51.060;3.734;2023-07-13T06:28:42;13.43;;;4.10;;
11230;SDS011;5672;51.060;3.734;2023-07-13T06:31:09;11.73;;;3.70;;
11230;SDS011;5672;51.060;3.734;2023-07-13T06:33:35;10.77;;;3.40;;
11230;SDS011;5672;51.060;3.734;2023-07-13T06:36:02;16.00;;;6.03;;
11230;SDS011;5672;51.060;3.734;2023-07-13T06:38:28;17.50;;;7.03;;
11230;SDS011;5672;51.060;3.734;2023-07-13T06:40:55;19.40;;;7.47;;
11230;SDS011;5672;51.060;3.734;2023-07-13T06:43:21;14.90;;;6.23;;
11230;SDS011;5672;51.060;3.734;2023-07-13T06:45:48;12.47;;;5.37;;
11230;SDS011;5672;51.060;3.734;2023-07-13T06:48:18;21.60;;;6.93;;
11230;SDS011;5672;51.060;3.734;2023-07-13T06:50:45;17.33;;;7.87;;
11230;SDS011;5672;51.060;3.734;2023-07-13T06:53:11;21.80;;;6.30;;
11230;SDS011;5672;51.060;3.734;2023-07-13T06:55:38;15.57;;;5.67;;
11230;SDS011;5672;51.060;3.734;2023-07-13T06:58:04;11.23;;;5.03;;
11230;SDS011;5672;51.060;3.734;2023-07-13T07:00:30;12.37;;;4.13;;
11230;SDS011;5672;51.060;3.734;2023-07-13T07:02:56;14.43;;;4.63;;
11230;SDS011;5672;51.060;3.734;2023-07-13T07:05:22;15.53;;;5.30;;
11230;SDS011;5672;51.060;3.734;2023-07-13T07:07:51;12.00;;;5.00;;
11230;SDS011;5672;51.060;3.734;2023-07-13T07:10:18;18.33;;;6.90;;
11230;SDS011;5672;51.060;3.734;2023-07-13T07:12:45;16.60;;;6.53;;
11230;SDS011;5672;51.060;3.734;2023-07-13T07:15:11;16.80;;;5.57;;
11230;SDS011;5672;51.060;3.734;2023-07-13T07:17:37;15.33;;;6.10;;
11230;SDS011;5672;51.060;3.734;2023-07-13T07:20:03;11.57;;;5.27;;
11230;SDS011;5672;51.060;3.734;2023-07-13T07:22:29;18.40;;;5.50;;
11230;SDS011;5672;51.060;3.734;2023-07-13T07:24:56;15.87;;;5.00;;
11230;SDS011;5672;51.060;3.734;2023-07-13T07:27:22;13.63;;;5.30;;
11230;SDS011;5672;51.060;3.734;2023-07-13T07:29:48;10.87;;;4.50;;
11230;SDS011;5672;51.060;3.734;2023-07-13T07:32:14;9.53;;;5.27;;
11230;SDS011;5672;51.060;3.734;2023-07-13T07:34:40;9.37;;;4.53;;
11230;SDS011;5672;51.060;3.734;2023-07-13T07:37:06;9.53;;;4.37;;
11230;SDS011;5672;51.060;3.734;2023-07-13T07:39:35;14.20;;;4.37;;
11230;SDS011;5672;51.060;3.734;2023-07-13T07:42:01;10.37;;;4.77;;
11230;SDS011;5672;51.060;3.734;2023-07-13T07:44:27;15.73;;;5.50;;
11230;SDS011;5672;51.060;3.734;2023-07-13T07:46:53;11.10;;;4.43;;
11230;SDS011;5672;51.060;3.734;2023-07-13T07:49:20;10.70;;;4.00;;
11230;SDS011;5672;51.060;3.734;2023-07-13T07:51:46;9.90;;;3.77;;
11230;SDS011;5672;51.060;3.734;2023-07-13T07:54:14;6.13;;;3.20;;
11230;SDS011;5672;51.060;3.734;2023-07-13T07:56:41;12.77;;;3.27;;
11230;SDS011;5672;51.060;3.734;2023-07-13T07:59:07;8.57;;;3.27;;
11230;SDS011;5672;51.060;3.734;2023-07-13T08:01:34;7.00;;;3.17;;
11230;SDS011;5672;51.060;3.734;2023-07-13T08:04:00;5.23;;;2.77;;
11230;SDS011;5672;51.060;3.734;2023-07-13T08:06:26;8.20;;;3.30;;
11230;SDS011;5672;51.060;3.734;2023-07-13T08:08:53;9.00;;;2.70;;
11230;SDS011;5672;51.060;3.734;2023-07-13T08:11:20;8.30;;;2.90;;
11230;SDS011;5672;51.060;3.734;2023-07-13T08:13:46;7.23;;;3.17;;
11230;SDS011;5672;51.060;3.734;2023-07-13T08:16:12;6.60;;;2.83;;
11230;SDS011;5672;51.060;3.734;2023-07-13T08:18:38;9.80;;;3.37;;
11230;SDS011;5672;51.060;3.734;2023-07-13T08:21:05;7.37;;;2.70;;
11230;SDS011;5672;51.060;3.734;2023-07-13T08:23:31;12.43;;;3.20;;
11230;SDS011;5672;51.060;3.734;2023-07-13T08:25:57;6.30;;;3.10;;
11230;SDS011;5672;51.060;3.734;2023-07-13T08:28:24;8.13;;;3.10;;
11230;SDS011;5672;51.060;3.734;2023-07-13T08:30:50;7.27;;;2.60;;
11230;SDS011;5672;51.060;3.734;2023-07-13T08:33:17;5.40;;;2.83;;
11230;SDS011;5672;51.060;3.734;2023-07-13T08:35:45;10.20;;;3.73;;
11230;SDS011;5672;51.060;3.734;2023-07-13T08:38:12;6.90;;;3.50;;
11230;SDS011;5672;51.060;3.734;2023-07-13T08:40:38;7.47;;;3.40;;
11230;SDS011;5672;51.060;3.734;2023-07-13T08:43:04;8.20;;;3.17;;
11230;SDS011;5672;51.060;3.734;2023-07-13T08:45:36;11.03;;;4.47;;
11230;SDS011;5672;51.060;3.734;2023-07-13T08:48:05;10.10;;;4.97;;
11230;SDS011;5672;51.060;3.734;2023-07-13T08:50:35;6.67;;;4.03;;
11230;SDS011;5672;51.060;3.734;2023-07-13T08:53:05;11.77;;;3.60;;
11230;SDS011;5672;51.060;3.734;2023-07-13T08:55:33;6.37;;;3.03;;
11230;SDS011;5672;51.060;3.734;2023-07-13T08:58:09;10.33;;;3.90;;
11230;SDS011;5672;51.060;3.734;2023-07-13T09:03:24;8.53;;;4.23;;
11230;SDS011;5672;51.060;3.734;2023-07-13T09:05:57;7.83;;;3.17;;
11230;SDS011;5672;51.060;3.734;2023-07-13T09:15:57;5.97;;;3.17;;
11230;SDS011;5672;51.060;3.734;2023-07-13T09:18:28;7.10;;;3.40;;
11230;SDS011;5672;51.060;3.734;2023-07-13T09:21:02;7.37;;;3.87;;
11230;SDS011;5672;51.060;3.734;2023-07-13T09:23:29;5.90;;;3.43;;
11230;SDS011;5672;51.060;3.734;2023-07-13T09:25:59;5.97;;;3.27;;
11230;SDS011;5672;51.060;3.734;2023-07-13T09:28:27;6.87;;;2.83;;
11230;SDS011;5672;51.060;3.734;2023-07-13T09:30:58;9.13;;;3.17;;
11230;SDS011;5672;51.060;3.734;2023-07-13T09:33:27;3.90;;;2.60;;
11230;SDS011;5672;51.060;3.734;2023-07-13T09:35:55;5.83;;;3.10;;
11230;SDS011;5672;51.060;3.734;2023-07-13T09:38:23;8.87;;;3.03;;
11230;SDS011;5672;51.060;3.734;2023-07-13T09:43:24;8.77;;;3.73;;
11230;SDS011;5672;51.060;3.734;2023-07-13T09:45:50;8.40;;;3.17;;
11230;SDS011;5672;51.060;3.734;2023-07-13T09:48:17;7.90;;;3.23;;
11230;SDS011;5672;51.060;3.734;2023-07-13T09:50:43;8.70;;;4.20;;
11230;SDS011;5672;51.060;3.734;2023-07-13T09:53:17;6.70;;;3.47;;
11230;SDS011;5672;51.060;3.734;2023-07-13T09:55:44;6.87;;;3.60;;
11230;SDS011;5672;51.060;3.734;2023-07-13T09:58:12;7.23;;;3.30;;
11230;SDS011;5672;51.060;3.734;2023-07-13T10:00:39;9.20;;;3.10;;
11230;SDS011;5672;51.060;3.734;2023-07-13T10:03:14;7.50;;;3.27;;
11230;SDS011;5672;51.060;3.734;2023-07-13T10:05:42;6.20;;;2.70;;
11230;SDS011;5672;51.060;3.734;2023-07-13T10:08:16;4.70;;;3.17;;
11230;SDS011;5672;51.060;3.734;2023-07-13T10:10:43;9.57;;;4.17;;
11230;SDS011;5672;51.060;3.734;2023-07-13T10:13:32;9.30;;;4.10;;
11230;SDS011;5672;51.060;3.734;2023-07-13T10:16:04;4.97;;;2.83;;
11230;SDS011;5672;51.060;3.734;2023-07-13T10:18:31;6.63;;;2.93;;
11230;SDS011;5672;51.060;3.734;2023-07-13T10:21:08;7.10;;;2.73;;
11230;SDS011;5672;51.060;3.734;2023-07-13T10:23:35;5.20;;;2.80;;
11230;SDS011;5672;51.060;3.734;2023-07-13T10:26:01;4.00;;;2.50;;
11230;SDS011;5672;51.060;3.734;2023-07-13T10:28:31;8.27;;;3.40;;
11230;SDS011;5672;51.060;3.734;2023-07-13T10:30:59;6.50;;;3.70;;
11230;SDS011;5672;51.060;3.734;2023-07-13T10:33:25;7.77;;;2.93;;
11230;SDS011;5672;51.060;3.734;2023-07-13T10:36:03;5.63;;;3.10;;
11230;SDS011;5672;51.060;3.734;2023-07-13T10:38:30;6.83;;;3.13;;
11230;SDS011;5672;51.060;3.734;2023-07-13T10:40:58;6.33;;;3.63;;
11230;SDS011;5672;51.060;3.734;2023-07-13T10:43:28;4.40;;;3.10;;
11230;SDS011;5672;51.060;3.734;2023-07-13T10:45:55;7.93;;;2.80;;
11230;SDS011;5672;51.060;3.734;2023-07-13T10:48:22;6.73;;;2.50;;
11230;SDS011;5672;51.060;3.734;2023-07-13T10:50:49;7.73;;;2.93;;
11230;SDS011;5672;51.060;3.734;2023-07-13T10:58:21;16.53;;;5.97;;
11230;SDS011;5672;51.060;3.734;2023-07-13T11:03:46;9.43;;;3.70;;
11230;SDS011;5672;51.060;3.734;2023-07-13T11:06:36;4.93;;;3.23;;
11230;SDS011;5672;51.060;3.734;2023-07-13T11:11:48;5.67;;;3.60;;
11230;SDS011;5672;51.060;3.734;2023-07-13T11:16:56;4.60;;;2.97;;
11230;SDS011;5672;51.060;3.734;2023-07-13T11:27:28;4.20;;;3.47;;
11230;SDS011;5672;51.060;3.734;2023-07-13T11:30:20;5.67;;;3.50;;
11230;SDS011;5672;51.060;3.734;2023-07-13T11:32:43;6.13;;;4.00;;
11230;SDS011;5672;51.060;3.734;2023-07-13T11:35:12;5.03;;;3.50;;
11230;SDS011;5672;51.060;3.734;2023-07-13T11:37:39;5.13;;;4.07;;
11230;SDS011;5672;51.060;3.734;2023-07-13T11:40:05;7.43;;;4.47;;
11230;SDS011;5672;51.060;3.734;2023-07-13T11:42:31;8.57;;;5.87;;
11230;SDS011;5672;51.060;3.734;2023-07-13T11:44:57;8.13;;;4.90;;
11230;SDS011;5672;51.060;3.734;2023-07-13T11:47:25;9.67;;;4.70;;
11230;SDS011;5672;51.060;3.734;2023-07-13T11:49:54;8.80;;;5.00;;
11230;SDS011;5672;51.060;3.734;2023-07-13T11:52:33;7.73;;;4.87;;
11230;SDS011;5672;51.060;3.734;2023-07-13T11:55:02;8.30;;;4.17;;
11230;SDS011;5672;51.060;3.734;2023-07-13T11:57:37;6.50;;;4.67;;
11230;SDS011;5672;51.060;3.734;2023-07-13T12:00:15;5.27;;;3.87;;
11230;SDS011;5672;51.060;3.734;2023-07-13T12:02:43;7.07;;;4.23;;
11230;SDS011;5672;51.060;3.734;2023-07-13T12:05:11;4.40;;;4.00;;
11230;SDS011;5672;51.060;3.734;2023-07-13T12:07:38;4.93;;;4.03;;
11230;SDS011;5672;51.060;3.734;2023-07-13T12:12:45;5.00;;;4.50;;
11230;SDS011;5672;51.060;3.734;2023-07-13T12:15:11;8.53;;;5.50;;
11230;SDS011;5672;51.060;3.734;2023-07-13T12:17:37;6.30;;;4.70;;
11230;SDS011;5672;51.060;3.734;2023-07-13T12:20:09;5.13;;;4.70;;
11230;SDS011;5672;51.060;3.734;2023-07-13T12:22:40;9.00;;;4.43;;
11230;SDS011;5672;51.060;3.734;2023-07-13T12:25:11;5.13;;;4.17;;
11230;SDS011;5672;51.060;3.734;2023-07-13T12:27:37;6.07;;;4.40;;
11230;SDS011;5672;51.060;3.734;2023-07-13T12:30:05;7.20;;;4.47;;
11230;SDS011;5672;51.060;3.734;2023-07-13T12:32:31;4.83;;;3.93;;
11230;SDS011;5672;51.060;3.734;2023-07-13T12:35:13;5.10;;;4.53;;
11230;SDS011;5672;51.060;3.734;2023-07-13T12:37:41;4.43;;;3.90;;
11230;SDS011;5672;51.060;3.734;2023-07-13T12:40:13;9.73;;;4.00;;
11230;SDS011;5672;51.060;3.734;2023-07-13T12:42:43;5.07;;;3.80;;
11230;SDS011;5672;51.060;3.734;2023-07-13T12:45:32;4.50;;;3.60;;
11230;SDS011;5672;51.060;3.734;2023-07-13T12:47:59;6.30;;;4.03;;
11230;SDS011;5672;51.060;3.734;2023-07-13T12:50:36;6.63;;;3.67;;
11230;SDS011;5672;51.060;3.734;2023-07-13T12:53:04;6.70;;;4.13;;
11230;SDS011;5672;51.060;3.734;2023-07-13T12:55:45;5.00;;;3.63;;
11230;SDS011;5672;51.060;3.734;2023-07-13T13:00:54;4.90;;;3.90;;
11230;SDS011;5672;51.060;3.734;2023-07-13T13:03:29;7.00;;;4.60;;
11230;SDS011;5672;51.060;3.734;2023-07-13T13:06:01;4.00;;;3.70;;
11230;SDS011;5672;51.060;3.734;2023-07-13T13:08:30;7.13;;;4.13;;
11230;SDS011;5672;51.060;3.734;2023-07-13T13:10:56;5.63;;;3.53;;
11230;SDS011;5672;51.060;3.734;2023-07-13T13:13:22;5.47;;;3.70;;
11230;SDS011;5672;51.060;3.734;2023-07-13T13:15:49;5.13;;;3.77;;
11230;SDS011;5672;51.060;3.734;2023-07-13T13:18:22;5.60;;;3.33;;
11230;SDS011;5672;51.060;3.734;2023-07-13T13:20:50;3.43;;;3.23;;
11230;SDS011;5672;51.060;3.734;2023-07-13T13:23:17;3.10;;;2.80;;
11230;SDS011;5672;51.060;3.734;2023-07-13T13:25:44;4.83;;;2.77;;
11230;SDS011;5672;51.060;3.734;2023-07-13T13:28:17;3.53;;;2.33;;
11230;SDS011;5672;51.060;3.734;2023-07-13T13:30:44;3.93;;;2.30;;
11230;SDS011;5672;51.060;3.734;2023-07-13T13:33:11;3.17;;;2.37;;
11230;SDS011;5672;51.060;3.734;2023-07-13T13:35:37;3.97;;;2.30;;
11230;SDS011;5672;51.060;3.734;2023-07-13T13:38:13;2.70;;;2.50;;
11230;SDS011;5672;51.060;3.734;2023-07-13T13:40:43;3.33;;;2.10;;
11230;SDS011;5672;51.060;3.734;2023-07-13T13:43:21;3.80;;;2.07;;
11230;SDS011;5672;51.060;3.734;2023-07-13T13:45:51;27.20;;;18.17;;
11230;SDS011;5672;51.060;3.734;2023-07-13T13:48:18;10.23;;;6.83;;
11230;SDS011;5672;51.060;3.734;2023-07-13T13:50:45;9.67;;;6.27;;
11230;SDS011;5672;51.060;3.734;2023-07-13T13:53:12;20.80;;;12.93;;
11230;SDS011;5672;51.060;3.734;2023-07-13T13:55:39;30.97;;;18.30;;
11230;SDS011;5672;51.060;3.734;2023-07-13T13:58:07;17.93;;;11.57;;
11230;SDS011;5672;51.060;3.734;2023-07-13T14:00:33;11.40;;;6.60;;
11230;SDS011;5672;51.060;3.734;2023-07-13T14:02:59;9.43;;;5.43;;
11230;SDS011;5672;51.060;3.734;2023-07-13T14:05:25;4.70;;;3.40;;
11230;SDS011;5672;51.060;3.734;2023-07-13T14:07:52;3.07;;;2.70;;
11230;SDS011;5672;51.060;3.734;2023-07-13T14:10:20;2.90;;;2.30;;
11230;SDS011;5672;51.060;3.734;2023-07-13T14:12:47;2.42;;;1.77;;
11230;SDS011;5672;51.060;3.734;2023-07-13T14:17:42;8.63;;;2.53;;
11230;SDS011;5672;51.060;3.734;2023-07-13T14:20:12;17.98;;;8.73;;
11230;SDS011;5672;51.060;3.734;2023-07-13T14:22:38;5.60;;;4.60;;
11230;SDS011;5672;51.060;3.734;2023-07-13T14:25:04;7.70;;;3.57;;
11230;SDS011;5672;51.060;3.734;2023-07-13T14:27:30;5.67;;;2.80;;
11230;SDS011;5672;51.060;3.734;2023-07-13T14:29:56;3.97;;;2.60;;
11230;SDS011;5672;51.060;3.734;2023-07-13T14:32:22;2.47;;;2.27;;
11230;SDS011;5672;51.060;3.734;2023-07-13T14:34:48;3.20;;;2.20;;
11230;SDS011;5672;51.060;3.734;2023-07-13T14:37:14;5.43;;;3.60;;
11230;SDS011;5672;51.060;3.734;2023-07-13T14:39:44;2.97;;;2.77;;
11230;SDS011;5672;51.060;3.734;2023-07-13T14:42:11;5.90;;;4.07;;
11230;SDS011;5672;51.060;3.734;2023-07-13T14:44:39;4.50;;;4.00;;
11230;SDS011;5672;51.060;3.734;2023-07-13T14:47:05;4.17;;;3.60;;
11230;SDS011;5672;51.060;3.734;2023-07-13T14:49:33;4.73;;;3.30;;
11230;SDS011;5672;51.060;3.734;2023-07-13T14:52:01;3.73;;;3.10;;
11230;SDS011;5672;51.060;3.734;2023-07-13T14:54:27;4.83;;;4.07;;
11230;SDS011;5672;51.060;3.734;2023-07-13T14:56:53;4.27;;;2.80;;
11230;SDS011;5672;51.060;3.734;2023-07-13T14:59:19;6.13;;;3.47;;
11230;SDS011;5672;51.060;3.734;2023-07-13T15:01:46;5.37;;;3.00;;
11230;SDS011;5672;51.060;3.734;2023-07-13T15:04:12;2.90;;;2.33;;
11230;SDS011;5672;51.060;3.734;2023-07-13T15:06:58;4.13;;;3.60;;
11230;SDS011;5672;51.060;3.734;2023-07-13T15:09:25;4.67;;;3.27;;
11230;SDS011;5672;51.060;3.734;2023-07-13T15:11:51;3.70;;;2.20;;
11230;SDS011;5672;51.060;3.734;2023-07-13T15:14:18;2.60;;;2.30;;
11230;SDS011;5672;51.060;3.734;2023-07-13T15:16:44;3.20;;;2.70;;
11230;SDS011;5672;51.060;3.734;2023-07-13T15:19:11;2.47;;;2.27;;
11230;SDS011;5672;51.060;3.734;2023-07-13T15:21:37;2.10;;;1.90;;
11230;SDS011;5672;51.060;3.734;2023-07-13T15:24:03;13.43;;;7.40;;
11230;SDS011;5672;51.060;3.734;2023-07-13T15:26:33;5.67;;;4.17;;
11230;SDS011;5672;51.060;3.734;2023-07-13T15:28:59;3.50;;;2.67;;
11230;SDS011;5672;51.060;3.734;2023-07-13T15:31:26;2.70;;;2.23;;
11230;SDS011;5672;51.060;3.734;2023-07-13T15:33:54;4.23;;;3.00;;
11230;SDS011;5672;51.060;3.734;2023-07-13T15:36:20;2.63;;;2.43;;
11230;SDS011;5672;51.060;3.734;2023-07-13T15:38:48;5.83;;;2.90;;
11230;SDS011;5672;51.060;3.734;2023-07-13T15:41:22;6.57;;;2.70;;
11230;SDS011;5672;51.060;3.734;2023-07-13T15:43:49;4.00;;;2.30;;